createdAt,value
2022-11-20T02:02:06.570Z,-1.24
2022-11-20T02:08:54.036Z,-1.41
2022-11-20T02:15:47.470Z,-1.27
2022-11-20T02:19:22.064Z,-1.29
2022-11-20T02:29:50.337Z,-1.16
2022-11-20T02:33:25.170Z,-1.18
2022-11-20T02:37:22.932Z,-1.11
2022-11-20T02:39:40.934Z,-1.10
2022-11-20T02:46:58.116Z,-1.09
2022-11-20T03:02:22.153Z,-1.04
2022-11-20T03:06:14.470Z,-1.03
2022-11-20T03:10:12.809Z,-1.05
2022-11-20T03:25:12.299Z,-1.06
2022-11-20T03:40:15.672Z,-1.15
2022-11-20T03:47:15.052Z,-1.19
2022-11-20T03:49:59.269Z,-1.18
2022-11-20T04:18:12.779Z,-1.12
2022-11-20T05:26:05.575Z,-1.27
2022-11-20T05:35:14.251Z,-1.31
2022-11-20T05:45:46.080Z,-1.26
2022-11-20T05:48:22.392Z,-1.26
2022-11-20T05:50:49.354Z,-1.19
2022-11-20T05:53:16.012Z,-1.14
2022-11-20T05:55:42.702Z,-1.12
2022-11-20T05:58:09.289Z,-1.18
2022-11-20T06:00:36.500Z,-1.23
2022-11-20T06:03:03.588Z,-1.15
2022-11-20T06:05:30.280Z,-1.17
2022-11-20T06:07:56.895Z,-1.19
2022-11-20T06:10:23.532Z,-1.19
2022-11-20T06:12:50.212Z,-1.16
2022-11-20T06:15:16.825Z,-1.18
2022-11-20T06:17:43.671Z,-1.18
2022-11-20T06:20:10.809Z,-1.22
2022-11-20T06:22:37.447Z,-1.22
2022-11-20T06:25:04.124Z,-1.16
2022-11-20T06:27:30.756Z,-1.20
2022-11-20T06:29:57.401Z,-1.20
2022-11-20T06:32:23.995Z,-1.22
2022-11-20T06:34:50.713Z,-1.27
2022-11-20T06:37:17.423Z,-1.25
2022-11-20T06:39:44.092Z,-1.25
2022-11-20T06:42:10.701Z,-1.24
2022-11-20T06:44:37.308Z,-1.25
2022-11-20T06:47:05.288Z,-1.20
2022-11-20T06:49:40.253Z,-1.21
2022-11-20T06:52:08.305Z,-1.21
2022-11-20T06:54:41.265Z,-1.18
2022-11-20T06:57:21.162Z,-1.16
2022-11-20T07:00:08.862Z,-1.21
2022-11-20T07:02:36.267Z,-1.21
2022-11-20T07:05:03.189Z,-1.19
2022-11-20T07:07:31.507Z,-1.16
2022-11-20T07:10:03.318Z,-1.15
2022-11-20T07:12:47.231Z,-1.11
2022-11-20T07:25:32.186Z,-1.10
2022-11-20T07:28:01.689Z,-1.08
2022-11-20T07:30:29.097Z,-1.03
2022-11-20T07:32:56.535Z,-1.05
2022-11-20T07:35:24.081Z,-1.03
2022-11-20T07:37:50.778Z,-1.03
2022-11-20T07:40:20.733Z,-0.96
2022-11-20T07:42:54.792Z,-0.57
2022-11-20T07:45:22.217Z,-0.71
2022-11-20T07:47:50.008Z,-0.78
2022-11-20T07:50:21.156Z,-0.82
2022-11-20T07:52:51.943Z,-0.80
2022-11-20T07:55:22.243Z,-0.76
2022-11-20T07:57:58.895Z,-0.73
2022-11-20T08:00:27.631Z,-0.71
2022-11-20T08:02:56.395Z,-0.72
2022-11-20T08:05:26.052Z,-0.72
2022-11-20T08:07:52.913Z,-0.74
2022-11-20T08:10:25.962Z,-0.70
2022-11-20T08:13:12.093Z,-0.72
2022-11-20T08:15:39.310Z,-0.67
2022-11-20T08:20:54.053Z,-0.65
2022-11-20T08:23:20.667Z,-0.63
2022-11-20T08:25:50.256Z,-0.61
2022-11-20T08:28:21.338Z,-0.53
2022-11-20T08:30:51.385Z,-0.46
2022-11-20T08:33:19.030Z,-0.45
2022-11-20T08:35:46.142Z,-0.35
2022-11-20T08:38:12.803Z,-0.37
2022-11-20T08:40:39.439Z,-0.40
2022-11-20T08:43:06.091Z,-0.38
2022-11-20T08:45:34.882Z,-0.33
2022-11-20T08:48:05.091Z,-0.32
2022-11-20T08:50:33.534Z,-0.28
2022-11-20T08:53:04.593Z,-0.19
2022-11-20T08:55:31.202Z,-0.17
2022-11-20T08:57:57.853Z,-0.11
2022-11-20T09:00:24.432Z,-0.02
2022-11-20T09:02:51.060Z,0.09
2022-11-20T09:05:17.654Z,0.09
2022-11-20T09:07:44.492Z,0.01
2022-11-20T09:10:23.736Z,0.00
2022-11-20T09:12:52.874Z,-0.08
2022-11-20T09:15:19.659Z,-0.11
2022-11-20T09:17:56.207Z,-0.07
2022-11-20T09:20:22.877Z,-0.07
2022-11-20T09:22:49.473Z,-0.07
2022-11-20T09:25:16.182Z,-0.09
2022-11-20T09:27:44.767Z,-0.12
2022-11-20T09:30:11.663Z,0.01
2022-11-20T09:32:39.831Z,-0.05
2022-11-20T09:35:06.628Z,-0.09
2022-11-20T09:37:33.281Z,-0.08
2022-11-20T09:40:01.673Z,-0.06
2022-11-20T09:42:37.908Z,-0.05
2022-11-20T09:45:15.228Z,-0.07
2022-11-20T09:47:55.991Z,-0.10
2022-11-20T09:50:26.393Z,-0.13
2022-11-20T09:52:52.938Z,-0.12
2022-11-20T09:55:19.729Z,-0.15
2022-11-20T09:57:47.201Z,-0.09
2022-11-20T10:00:14.578Z,-0.08
2022-11-20T10:02:46.428Z,-0.05
2022-11-20T10:05:20.520Z,-0.08
2022-11-20T10:07:57.958Z,-0.07
2022-11-20T10:10:42.620Z,-0.07
2022-11-20T10:13:18.628Z,-0.02
2022-11-20T10:15:57.478Z,0.03
2022-11-20T10:18:30.260Z,0.03
2022-11-20T10:21:15.743Z,0.02
2022-11-20T10:23:48.993Z,0.02
2022-11-20T10:26:22.927Z,0.12
2022-11-20T10:29:08.673Z,0.19
2022-11-20T10:31:36.443Z,0.20
2022-11-20T10:34:15.927Z,0.21
2022-11-20T10:36:54.033Z,0.32
2022-11-20T10:39:24.231Z,0.35
2022-11-20T10:41:52.223Z,0.46
2022-11-20T10:44:39.160Z,0.36
2022-11-20T10:47:12.852Z,0.44
2022-11-20T10:49:39.539Z,0.44
2022-11-20T10:52:28.165Z,0.45
2022-11-20T10:55:00.173Z,0.27
2022-11-20T10:57:48.446Z,0.29
2022-11-20T11:00:15.446Z,0.34
2022-11-20T11:02:49.123Z,0.29
2022-11-20T11:05:23.176Z,0.32
2022-11-20T11:07:53.162Z,0.24
2022-11-20T11:10:21.614Z,0.25
2022-11-20T11:12:50.528Z,0.27
2022-11-20T11:15:40.543Z,0.26
2022-11-20T11:18:10.771Z,0.25
2022-11-20T11:20:37.476Z,0.21
2022-11-20T11:23:05.537Z,0.15
2022-11-20T11:25:34.840Z,0.17
2022-11-20T11:28:05.981Z,0.12
2022-11-20T11:30:42.197Z,0.15
2022-11-20T11:33:28.355Z,0.10
2022-11-20T11:35:58.404Z,0.16
2022-11-20T11:38:41.306Z,0.13
2022-11-20T11:41:08.805Z,0.16
2022-11-20T11:43:54.941Z,0.08
2022-11-20T11:46:21.707Z,0.04
2022-11-20T11:48:58.588Z,0.04
2022-11-20T11:51:39.357Z,0.07
2022-11-20T11:54:09.742Z,-0.06
2022-11-20T11:56:36.734Z,-0.06
2022-11-20T11:59:05.396Z,-0.10
2022-11-20T12:01:45.126Z,-0.17
2022-11-20T12:04:12.295Z,-0.19
2022-11-20T12:06:45.967Z,-0.25
2022-11-20T12:09:23.589Z,-0.28
2022-11-20T12:12:06.247Z,-0.30
2022-11-20T12:15:02.734Z,-0.32
2022-11-20T12:17:29.810Z,-0.30
2022-11-20T12:20:05.570Z,-0.35
2022-11-20T12:22:32.189Z,-0.28
2022-11-20T12:25:17.206Z,-0.21
2022-11-20T12:27:53.113Z,-0.04
2022-11-20T12:30:20.326Z,-0.01
2022-11-20T12:33:25.628Z,-0.09
2022-11-20T12:35:55.320Z,-0.13
2022-11-20T12:38:31.777Z,-0.06
2022-11-20T12:41:02.283Z,0.02
2022-11-20T12:43:48.804Z,0.09
2022-11-20T12:46:30.447Z,0.08
2022-11-20T12:49:15.531Z,0.26
2022-11-20T12:51:42.396Z,0.45
2022-11-20T12:54:22.210Z,0.56
2022-11-20T12:56:51.441Z,0.53
2022-11-20T12:59:22.801Z,0.46
2022-11-20T13:01:51.423Z,0.41
2022-11-20T13:04:22.028Z,0.40
2022-11-20T13:06:48.724Z,0.33
2022-11-20T13:09:16.688Z,0.22
2022-11-20T13:11:48.856Z,0.27
2022-11-20T13:14:34.451Z,0.26
2022-11-20T13:17:07.339Z,0.28
2022-11-20T13:19:34.140Z,0.20
2022-11-20T13:22:00.995Z,0.09
2022-11-20T13:24:28.826Z,0.01
2022-11-20T13:27:01.934Z,0.03
2022-11-20T13:29:28.595Z,-0.06
2022-11-20T13:32:07.616Z,-0.03
2022-11-20T13:34:35.055Z,0.00
2022-11-20T13:37:01.971Z,-0.03
2022-11-20T13:39:29.499Z,0.03
2022-11-20T13:41:57.459Z,-0.10
2022-11-20T13:44:36.477Z,-0.07
2022-11-20T13:47:03.135Z,-0.05
2022-11-20T13:49:33.717Z,-0.04
2022-11-20T13:52:04.526Z,-0.16
2022-11-20T13:54:52.952Z,-0.10
2022-11-20T13:57:22.564Z,-0.04
2022-11-20T13:59:49.208Z,-0.09
2022-11-20T14:02:17.623Z,-0.10
2022-11-20T14:04:45.922Z,-0.16
2022-11-20T14:07:12.848Z,-0.21
2022-11-20T14:09:40.076Z,-0.23
2022-11-20T14:12:15.702Z,-0.36
2022-11-20T14:14:48.996Z,-0.28
2022-11-20T14:17:30.592Z,-0.46
2022-11-20T14:20:06.162Z,-0.58
2022-11-20T14:22:34.212Z,-0.56
2022-11-20T14:25:13.892Z,-0.52
2022-11-20T14:27:41.156Z,-0.46
2022-11-20T14:30:14.272Z,-0.44
2022-11-20T14:32:40.940Z,-0.44
2022-11-20T14:35:11.377Z,-0.40
2022-11-20T14:37:38.795Z,-0.42
2022-11-20T14:40:24.373Z,-0.45
2022-11-20T14:42:51.010Z,-0.43
2022-11-20T14:45:17.719Z,-0.47
2022-11-20T14:47:44.296Z,-0.40
2022-11-20T14:50:15.429Z,-0.40
2022-11-20T14:52:50.492Z,-0.40
2022-11-20T14:55:25.876Z,-0.44
2022-11-20T14:57:55.768Z,-0.40
2022-11-20T15:00:24.251Z,-0.43
2022-11-20T15:02:51.855Z,-0.42
2022-11-20T15:05:26.117Z,-0.45
2022-11-20T15:08:05.177Z,-0.41
2022-11-20T15:10:34.293Z,-0.45
2022-11-20T15:13:09.782Z,-0.45
2022-11-20T15:15:47.146Z,-0.40
2022-11-20T15:18:14.434Z,-0.45
2022-11-20T15:20:41.088Z,-0.50
2022-11-20T15:23:16.440Z,-0.50
2022-11-20T15:25:43.400Z,-0.56
2022-11-20T15:28:20.016Z,-0.62
2022-11-20T15:30:47.325Z,-0.62
2022-11-20T15:33:14.130Z,-0.67
2022-11-20T15:35:40.826Z,-0.68
2022-11-20T15:38:07.556Z,-0.67
2022-11-20T15:40:34.261Z,-0.65
2022-11-20T15:43:08.172Z,-0.61
2022-11-20T15:45:42.830Z,-0.63
2022-11-20T15:48:13.877Z,-0.54
2022-11-20T15:51:06.235Z,-0.54
2022-11-20T15:53:32.946Z,-0.54
2022-11-20T15:55:59.529Z,-0.49
2022-11-20T15:58:28.752Z,-0.47
2022-11-20T16:00:55.601Z,-0.44
2022-11-20T16:03:22.527Z,-0.54
2022-11-20T16:05:49.657Z,-0.53
2022-11-20T16:08:16.501Z,-0.52
2022-11-20T16:10:43.257Z,-0.47
2022-11-20T16:13:32.271Z,-0.47
2022-11-20T16:15:59.957Z,-0.51
2022-11-20T16:18:32.766Z,-0.33
2022-11-20T16:21:02.301Z,-0.34
2022-11-20T16:23:29.025Z,-0.43
2022-11-20T16:25:55.694Z,-0.48
2022-11-20T16:28:24.954Z,-0.48
2022-11-20T16:30:51.788Z,-0.46
2022-11-20T16:33:18.703Z,-0.48
2022-11-20T16:35:45.501Z,-0.45
2022-11-20T16:38:12.234Z,-0.43
2022-11-20T16:40:38.936Z,-0.49
2022-11-20T16:43:10.711Z,-0.49
2022-11-20T16:45:41.019Z,-0.49
2022-11-20T16:48:07.731Z,-0.48
2022-11-20T16:50:34.450Z,-0.45
2022-11-20T16:53:01.180Z,-0.49
2022-11-20T16:55:27.926Z,-0.38
2022-11-20T16:57:54.634Z,-0.41
2022-11-20T17:00:21.611Z,-0.46
2022-11-20T17:02:48.328Z,-0.54
2022-11-20T17:05:15.141Z,-0.54
2022-11-20T17:07:41.869Z,-0.54
2022-11-20T17:10:08.717Z,-0.64
2022-11-20T17:12:35.459Z,-0.65
2022-11-20T17:15:02.456Z,-0.69
2022-11-20T17:17:29.664Z,-0.67
2022-11-20T17:19:56.434Z,-0.64
2022-11-20T17:22:23.214Z,-0.69
2022-11-20T17:24:49.976Z,-0.61
2022-11-20T17:27:16.697Z,-0.63
2022-11-20T17:29:43.436Z,-0.55
2022-11-20T17:32:10.177Z,-0.59
2022-11-20T17:34:36.967Z,-0.64
2022-11-20T17:37:03.754Z,-0.70
2022-11-20T17:39:30.437Z,-0.68
2022-11-20T17:42:16.028Z,-0.68
2022-11-20T17:44:42.925Z,-0.68
2022-11-20T17:47:09.695Z,-0.68
2022-11-20T17:49:36.726Z,-0.65
2022-11-20T17:52:03.586Z,-0.63
2022-11-20T17:54:30.349Z,-0.62
2022-11-20T17:57:16.024Z,-0.62
2022-11-20T17:59:42.800Z,-0.65
2022-11-20T18:02:11.043Z,-0.63
2022-11-20T18:04:37.829Z,-0.63
2022-11-20T18:07:04.569Z,-0.64
2022-11-20T18:09:31.511Z,-0.64
2022-11-20T18:11:58.239Z,-0.62
2022-11-20T18:14:36.191Z,-0.60
2022-11-20T18:17:04.429Z,-0.61
2022-11-20T18:19:33.002Z,-0.59
2022-11-20T18:22:01.881Z,-0.60
2022-11-20T18:24:28.854Z,-0.57
2022-11-20T18:26:55.627Z,-0.58
2022-11-20T18:29:22.729Z,-0.60
2022-11-20T18:31:49.811Z,-0.61
2022-11-20T18:34:16.868Z,-0.65
2022-11-20T18:36:43.696Z,-0.64
2022-11-20T18:39:10.591Z,-0.65
2022-11-20T18:41:56.146Z,-0.63
2022-11-20T18:44:46.138Z,-0.63
2022-11-20T18:47:15.067Z,-0.66
2022-11-20T18:49:46.453Z,-0.68
2022-11-20T18:52:13.508Z,-0.65
2022-11-20T18:54:40.398Z,-0.63
2022-11-20T18:57:07.187Z,-0.64
2022-11-20T18:59:33.933Z,-0.60
2022-11-20T19:02:05.141Z,-0.62
2022-11-20T19:04:33.162Z,-0.61
2022-11-20T19:07:00.562Z,-0.60
2022-11-20T19:09:28.038Z,-0.64
2022-11-20T19:11:55.739Z,-0.75
2022-11-20T19:14:22.697Z,-0.77
2022-11-20T19:16:51.646Z,-0.75
2022-11-20T19:19:18.836Z,-0.69
2022-11-20T19:21:46.120Z,-0.71
2022-11-20T19:24:13.665Z,-0.72
2022-11-20T19:26:40.852Z,-0.74
2022-11-20T19:29:07.871Z,-0.72
2022-11-20T19:31:35.091Z,-0.67
2022-11-20T19:34:02.946Z,-0.68
2022-11-20T19:36:31.319Z,-0.71
2022-11-20T19:38:58.273Z,-0.74
2022-11-20T19:41:29.321Z,-0.74
2022-11-20T19:43:57.250Z,-0.75
2022-11-20T19:46:26.113Z,-0.70
2022-11-20T19:48:53.995Z,-0.68
2022-11-20T19:51:25.215Z,-0.68
2022-11-20T19:53:52.513Z,-0.65
2022-11-20T19:56:19.503Z,-0.72
2022-11-20T19:58:46.368Z,-0.69
2022-11-20T20:01:18.065Z,-0.68
2022-11-20T20:03:45.311Z,-0.68
2022-11-20T20:06:20.448Z,-0.63
2022-11-20T20:08:47.611Z,-0.65
2022-11-20T20:11:15.356Z,-0.68
2022-11-20T20:13:42.075Z,-0.76
2022-11-20T20:16:09.284Z,-0.79
2022-11-20T20:18:36.022Z,-0.78
2022-11-20T20:21:04.010Z,-0.82
2022-11-20T20:23:30.674Z,-0.82
2022-11-20T20:25:57.298Z,-0.83
2022-11-20T20:28:23.918Z,-0.82
2022-11-20T20:30:50.584Z,-0.91
2022-11-20T20:33:17.271Z,-0.89
2022-11-20T20:35:43.980Z,-0.85
2022-11-20T20:38:10.672Z,-0.94
2022-11-20T20:40:37.695Z,-0.96
2022-11-20T20:43:04.427Z,-1.01
2022-11-20T20:45:31.084Z,-0.98
2022-11-20T20:47:57.722Z,-1.05
2022-11-20T20:50:24.364Z,-1.11
2022-11-20T20:52:50.953Z,-1.09
2022-11-20T20:55:17.595Z,-1.04
2022-11-20T20:57:44.242Z,-1.09
2022-11-20T21:00:12.423Z,-1.11
2022-11-20T21:02:39.071Z,-1.05
2022-11-20T21:05:05.984Z,-1.08
2022-11-20T21:07:32.684Z,-1.09
2022-11-20T21:09:59.358Z,-1.10
2022-11-20T21:12:25.975Z,-1.16
2022-11-20T21:14:52.675Z,-1.20
2022-11-20T21:17:19.342Z,-1.21
2022-11-20T21:19:45.912Z,-1.22
2022-11-20T21:22:12.470Z,-1.26
2022-11-20T21:24:39.070Z,-1.30
2022-11-20T21:27:06.610Z,-1.36
2022-11-20T21:29:33.202Z,-1.33
2022-11-20T21:31:59.806Z,-1.39
2022-11-20T21:34:26.628Z,-1.38
2022-11-20T21:36:53.495Z,-1.44
2022-11-20T21:39:21.890Z,-1.46
2022-11-20T21:41:48.576Z,-1.52
2022-11-20T21:44:41.628Z,-1.53
2022-11-20T21:47:02.073Z,-1.49
2022-11-20T21:49:28.666Z,-1.57
2022-11-20T21:51:55.294Z,-1.55
2022-11-20T21:54:22.302Z,-1.55
2022-11-20T21:56:49.086Z,-1.58
2022-11-20T21:59:15.805Z,-1.59
2022-11-20T22:01:42.523Z,-1.63
2022-11-20T22:04:12.656Z,-1.65
2022-11-20T22:06:39.292Z,-1.65
2022-11-20T22:09:05.897Z,-1.69
2022-11-20T22:11:32.478Z,-1.71
2022-11-20T22:14:17.711Z,-1.72
2022-11-20T22:16:44.322Z,-1.77
2022-11-20T22:19:11.004Z,-1.80
2022-11-20T22:21:38.815Z,-1.81
2022-11-20T22:24:05.520Z,-1.85
2022-11-20T22:26:38.781Z,-1.86
2022-11-20T22:29:06.674Z,-1.84
2022-11-20T22:31:33.325Z,-1.83
2022-11-20T22:34:01.676Z,-1.83
2022-11-20T22:36:29.001Z,-1.87
2022-11-20T22:38:55.735Z,-1.86
2022-11-20T22:41:25.089Z,-1.89
2022-11-20T22:43:56.372Z,-1.88
2022-11-20T22:46:23.152Z,-1.94
2022-11-20T22:48:50.719Z,-1.94
2022-11-20T22:51:17.720Z,-1.91
2022-11-20T22:53:44.584Z,-1.91
2022-11-20T22:56:14.087Z,-1.90
2022-11-20T22:58:43.464Z,-1.92
2022-11-20T23:01:11.636Z,-1.96
2022-11-20T23:03:38.899Z,-1.99
2022-11-20T23:06:06.265Z,-1.97
2022-11-20T23:08:33.379Z,-1.94
2022-11-20T23:11:00.794Z,-1.96
2022-11-20T23:13:27.547Z,-2.06
2022-11-20T23:15:54.396Z,-2.08
2022-11-20T23:18:21.155Z,-2.13
2022-11-20T23:20:49.999Z,-2.13
2022-11-20T23:23:16.641Z,-2.15
2022-11-20T23:25:43.364Z,-2.17
2022-11-20T23:28:09.988Z,-2.20
2022-11-20T23:30:36.773Z,-2.24
2022-11-20T23:33:03.595Z,-2.27
2022-11-20T23:35:30.224Z,-2.28
2022-11-20T23:37:56.826Z,-2.30
2022-11-20T23:40:23.437Z,-2.31
2022-11-20T23:43:12.222Z,-2.33
2022-11-20T23:45:39.711Z,-2.35
2022-11-20T23:48:06.584Z,-2.33
2022-11-20T23:50:33.553Z,-2.35
2022-11-20T23:53:03.368Z,-2.31
2022-11-20T23:55:29.997Z,-2.34
2022-11-20T23:57:56.602Z,-2.32
